createdAt,value
2022-10-25T00:00:30.338Z,96527.77
2022-10-25T00:03:16.714Z,96521.44
2022-10-25T00:05:43.369Z,96522.52
2022-10-25T00:08:09.922Z,96524.05
2022-10-25T00:10:37.253Z,96517.45
2022-10-25T00:13:04.803Z,96515.15
2022-10-25T00:15:31.367Z,96508.38
2022-10-25T00:17:57.882Z,96509.23
2022-10-25T00:20:24.732Z,96510.26
2022-10-25T00:22:51.258Z,96503.77
2022-10-25T00:25:17.890Z,96507.17
2022-10-25T00:27:44.552Z,96500.66
2022-10-25T00:30:11.961Z,96498.39
2022-10-25T00:32:38.444Z,96497.43
2022-10-25T00:35:05.519Z,96493.85
2022-10-25T00:37:32.005Z,96492.65
2022-10-25T00:39:58.563Z,96488.73
2022-10-25T00:42:26.624Z,96496.02
2022-10-25T00:45:01.049Z,96486.80
2022-10-25T00:47:38.274Z,96489.93
2022-10-25T00:50:18.836Z,96488.77
2022-10-25T00:52:48.716Z,96484.67
2022-10-25T00:55:18.561Z,96481.40
2022-10-25T00:57:51.582Z,96492.63
2022-10-25T01:00:18.737Z,96493.55
2022-10-25T01:02:46.197Z,96492.09
2022-10-25T01:05:13.338Z,96495.61
2022-10-25T01:07:39.960Z,96495.58
2022-10-25T01:10:06.848Z,96490.50
2022-10-25T01:12:33.852Z,96479.90
2022-10-25T01:15:02.023Z,96478.32
2022-10-25T01:17:51.680Z,96468.56
2022-10-25T01:20:40.016Z,96464.84
2022-10-25T01:23:26.821Z,96460.52
2022-10-25T01:26:16.384Z,96456.22
2022-10-25T01:29:16.699Z,96453.79
2022-10-25T01:31:55.426Z,96449.45
2022-10-25T01:34:32.442Z,96440.45
2022-10-25T01:37:23.114Z,96442.86
2022-10-25T01:40:16.223Z,96443.10
2022-10-25T01:42:57.703Z,96448.45
2022-10-25T01:45:29.019Z,96442.95
2022-10-25T01:48:03.055Z,96440.48
2022-10-25T01:50:34.534Z,96439.14
2022-10-25T01:53:01.077Z,96440.05
2022-10-25T01:55:34.252Z,96437.05
2022-10-25T01:58:16.437Z,96438.06
2022-10-25T02:01:04.730Z,96434.14
2022-10-25T02:03:48.797Z,96428.29
2022-10-25T02:06:27.960Z,96423.47
2022-10-25T02:09:05.332Z,96428.25
2022-10-25T02:11:33.014Z,96430.27
2022-10-25T02:14:29.368Z,96428.20
2022-10-25T02:17:07.167Z,96429.86
2022-10-25T02:19:37.807Z,96427.21
2022-10-25T02:22:08.720Z,96423.10
2022-10-25T02:24:38.173Z,96420.58
2022-10-25T02:27:10.300Z,96416.87
2022-10-25T02:29:39.192Z,96418.86
2022-10-25T02:32:06.439Z,96421.72
2022-10-25T02:34:33.635Z,96422.77
2022-10-25T02:37:00.539Z,96415.83
2022-10-25T02:39:31.366Z,96419.63
2022-10-25T02:42:01.695Z,96422.80
2022-10-25T02:44:28.743Z,96421.48
2022-10-25T02:46:55.224Z,96418.65
2022-10-25T02:49:21.899Z,96419.15
2022-10-25T02:51:48.456Z,96416.14
2022-10-25T02:54:15.140Z,96411.27
2022-10-25T02:56:41.679Z,96414.03
2022-10-25T02:59:12.069Z,96416.75
2022-10-25T03:01:38.565Z,96417.10
2022-10-25T03:04:05.181Z,96411.29
2022-10-25T03:06:32.179Z,96412.63
2022-10-25T03:08:58.759Z,96413.38
2022-10-25T03:11:25.351Z,96417.52
2022-10-25T03:13:51.867Z,96426.60
2022-10-25T03:16:18.433Z,96427.83
2022-10-25T03:18:47.787Z,96427.69
2022-10-25T03:21:16.948Z,96423.34
2022-10-25T03:23:43.383Z,96422.90
2022-10-25T03:26:10.176Z,96418.14
2022-10-25T03:28:36.628Z,96418.14
2022-10-25T03:31:10.892Z,96416.56
2022-10-25T03:33:37.497Z,96418.09
2022-10-25T03:36:04.701Z,96419.91
2022-10-25T03:38:31.340Z,96419.30
2022-10-25T03:40:57.934Z,96422.52
2022-10-25T03:43:24.444Z,96421.67
2022-10-25T03:45:51.111Z,96414.88
2022-10-25T03:48:17.683Z,96418.25
2022-10-25T03:50:44.168Z,96416.37
2022-10-25T03:53:11.138Z,96413.77
2022-10-25T03:55:37.730Z,96410.04
2022-10-25T03:58:04.788Z,96403.89
2022-10-25T04:00:31.463Z,96401.37
2022-10-25T04:03:02.122Z,96404.44
2022-10-25T04:05:30.777Z,96406.67
2022-10-25T04:07:57.896Z,96400.23
2022-10-25T04:10:25.439Z,96398.73
2022-10-25T04:12:53.966Z,96395.58
2022-10-25T04:15:22.100Z,96390.97
2022-10-25T04:17:50.382Z,96387.59
2022-10-25T04:20:17.812Z,96386.33
2022-10-25T04:22:44.708Z,96390.77
2022-10-25T04:25:11.305Z,96390.90
2022-10-25T04:27:37.929Z,96392.41
2022-10-25T04:30:05.362Z,96383.46
2022-10-25T04:32:31.818Z,96380.39
2022-10-25T04:34:58.332Z,96381.42
2022-10-25T04:37:24.894Z,96382.06
2022-10-25T04:39:51.358Z,96388.17
2022-10-25T04:42:18.728Z,96389.66
2022-10-25T04:44:45.209Z,96385.70
2022-10-25T04:47:12.151Z,96382.25
2022-10-25T04:49:38.738Z,96371.79
2022-10-25T04:52:05.341Z,96365.44
2022-10-25T04:54:31.874Z,96363.42
2022-10-25T04:56:58.756Z,96367.02
2022-10-25T04:59:25.887Z,96368.10
2022-10-25T05:01:54.008Z,96357.93
2022-10-25T05:04:20.720Z,96355.61
2022-10-25T05:06:48.975Z,96351.39
2022-10-25T05:09:15.616Z,96349.02
2022-10-25T05:11:42.191Z,96347.47
2022-10-25T05:14:08.725Z,96338.30
2022-10-25T05:16:35.180Z,96329.36
2022-10-25T05:19:02.211Z,96330.42
2022-10-25T05:21:29.995Z,96330.29
2022-10-25T05:24:01.404Z,96330.51
2022-10-25T05:26:30.028Z,96332.57
2022-10-25T05:28:57.306Z,96333.85
2022-10-25T05:31:26.605Z,96335.04
2022-10-25T05:33:55.917Z,96334.71
2022-10-25T05:36:23.109Z,96332.09
2022-10-25T05:38:49.619Z,96331.91
2022-10-25T05:41:17.972Z,96334.23
2022-10-25T05:43:45.892Z,96337.39
2022-10-25T05:46:20.257Z,96342.36
2022-10-25T05:48:49.118Z,96349.02
2022-10-25T05:51:38.038Z,96352.19
2022-10-25T05:54:13.279Z,96345.98
2022-10-25T05:56:42.226Z,96349.49
2022-10-25T05:59:14.413Z,96349.90
2022-10-25T06:01:44.277Z,96349.35
2022-10-25T06:04:12.687Z,96351.73
2022-10-25T06:06:40.438Z,96354.41
2022-10-25T06:09:08.254Z,96360.94
2022-10-25T06:11:36.202Z,96362.16
2022-10-25T06:14:03.735Z,96363.11
2022-10-25T06:16:30.368Z,96374.21
2022-10-25T06:18:56.884Z,96379.39
2022-10-25T06:21:26.297Z,96389.65
2022-10-25T06:23:53.607Z,96383.59
2022-10-25T06:26:22.688Z,96387.89
2022-10-25T06:28:55.611Z,96384.96
2022-10-25T06:31:23.121Z,96380.58
2022-10-25T06:33:52.653Z,96378.52
2022-10-25T06:36:21.625Z,96381.18
2022-10-25T06:38:52.007Z,96382.86
2022-10-25T06:41:21.661Z,96383.86
2022-10-25T06:43:48.928Z,96391.02
2022-10-25T06:46:27.815Z,96390.70
2022-10-25T06:48:59.642Z,96395.55
2022-10-25T06:51:30.447Z,96395.33
2022-10-25T06:54:03.305Z,96395.38
2022-10-25T06:56:32.527Z,96391.56
2022-10-25T06:59:03.327Z,96400.68
2022-10-25T07:01:33.314Z,96406.61
2022-10-25T07:04:24.723Z,96396.12
2022-10-25T07:07:07.990Z,96400.34
2022-10-25T07:09:59.699Z,96400.69
2022-10-25T07:13:15.074Z,96402.41
2022-10-25T07:16:16.774Z,96405.10
2022-10-25T07:19:46.180Z,96401.58
2022-10-25T07:22:11.050Z,96407.08
2022-10-25T07:25:22.741Z,96403.73
2022-10-25T07:28:22.979Z,96406.93
2022-10-25T07:31:35.090Z,96410.97
2022-10-25T07:34:55.110Z,96408.20
2022-10-25T07:38:37.905Z,96406.73
2022-10-25T07:41:33.682Z,96414.47
2022-10-25T07:44:25.130Z,96419.98
2022-10-25T07:47:18.665Z,96418.86
2022-10-25T07:50:06.957Z,96421.08
2022-10-25T07:53:03.568Z,96415.08
2022-10-25T07:55:54.094Z,96406.90
2022-10-25T07:58:37.839Z,96410.88
2022-10-25T08:01:32.471Z,96419.86
2022-10-25T08:07:07.462Z,96410.80
2022-10-25T08:09:42.815Z,96412.27
2022-10-25T08:12:22.325Z,96416.44
2022-10-25T08:18:32.208Z,96411.20
2022-10-25T08:22:07.157Z,96405.94
2022-10-25T08:24:31.844Z,96403.04
2022-10-25T08:27:34.340Z,96401.17
2022-10-25T08:30:27.817Z,96408.42
2022-10-25T08:38:26.078Z,96399.45
2022-10-25T08:40:52.173Z,96406.17
2022-10-25T08:44:33.696Z,96411.30
2022-10-25T08:47:31.630Z,96414.73
2022-10-25T08:50:32.149Z,96418.21
2022-10-25T08:53:47.551Z,96417.75
2022-10-25T08:56:28.709Z,96420.10
2022-10-25T08:59:19.948Z,96419.42
2022-10-25T09:06:38.330Z,96427.01
2022-10-25T09:09:32.155Z,96437.20
2022-10-25T09:12:53.016Z,96445.20
2022-10-25T09:15:53.072Z,96447.58
2022-10-25T09:19:25.695Z,96453.38
2022-10-25T09:22:27.330Z,96450.70
2022-10-25T09:26:37.867Z,96448.38
2022-10-25T09:29:18.255Z,96451.86
2022-10-25T09:32:16.016Z,96450.91
2022-10-25T09:35:28.896Z,96442.36
2022-10-25T09:38:34.179Z,96440.15
2022-10-25T09:41:41.596Z,96435.35
2022-10-25T09:44:24.792Z,96421.95
2022-10-25T09:47:00.601Z,96425.33
2022-10-25T09:49:40.154Z,96426.59
2022-10-25T09:52:26.672Z,96427.75
2022-10-25T09:55:30.019Z,96430.13
2022-10-25T09:58:02.263Z,96434.08
2022-10-25T10:00:40.959Z,96442.45
2022-10-25T10:03:12.530Z,96454.88
2022-10-25T10:05:49.997Z,96456.92
2022-10-25T10:08:20.421Z,96456.02
2022-10-25T10:10:50.832Z,96455.23
2022-10-25T10:13:39.069Z,96450.20
2022-10-25T10:16:25.803Z,96447.48
2022-10-25T10:19:24.804Z,96441.05
2022-10-25T10:22:06.696Z,96431.98
2022-10-25T10:24:39.085Z,96426.48
2022-10-25T10:27:11.966Z,96428.59
2022-10-25T10:29:58.849Z,96428.42
2022-10-25T10:32:37.755Z,96431.27
2022-10-25T10:35:22.407Z,96434.21
2022-10-25T10:37:50.587Z,96435.22
2022-10-25T10:40:24.499Z,96437.80
2022-10-25T10:42:57.068Z,96428.40
2022-10-25T10:45:28.948Z,96429.71
2022-10-25T10:47:59.901Z,96432.09
2022-10-25T10:50:33.011Z,96439.33
2022-10-25T10:53:23.404Z,96442.34
2022-10-25T10:56:01.159Z,96439.74
2022-10-25T10:58:43.235Z,96446.30
2022-10-25T11:01:48.527Z,96448.00
2022-10-25T11:05:29.953Z,96456.52
2022-10-25T11:08:38.318Z,96457.62
2022-10-25T11:11:22.569Z,96462.15
2022-10-25T11:14:38.339Z,96472.16
2022-10-25T11:17:32.557Z,96466.55
2022-10-25T11:20:34.103Z,96464.49
2022-10-25T11:24:00.390Z,96464.91
2022-10-25T11:26:47.880Z,96465.73
2022-10-25T11:29:39.311Z,96467.97
2022-10-25T11:32:47.572Z,96465.88
2022-10-25T11:35:56.469Z,96469.83
2022-10-25T11:38:56.812Z,96465.64
2022-10-25T11:41:38.201Z,96467.64
2022-10-25T11:44:33.094Z,96473.85
2022-10-25T11:47:29.110Z,96472.19
2022-10-25T11:50:14.543Z,96476.16
2022-10-25T11:53:10.289Z,96474.56
2022-10-25T11:55:50.367Z,96469.23
2022-10-25T11:58:54.910Z,96471.08
2022-10-25T12:01:46.732Z,96470.79
2022-10-25T12:06:28.120Z,96471.34
2022-10-25T12:08:20.857Z,96477.39
2022-10-25T12:10:55.164Z,96484.52
2022-10-25T12:13:31.745Z,96482.73
2022-10-25T12:16:02.723Z,96485.67
2022-10-25T12:18:51.319Z,96484.61
2022-10-25T12:21:24.443Z,96485.90
2022-10-25T12:23:55.059Z,96486.46
2022-10-25T12:26:33.693Z,96482.36
2022-10-25T12:29:06.134Z,96482.67
2022-10-25T12:31:52.330Z,96478.83
2022-10-25T12:34:40.313Z,96478.11
2022-10-25T12:37:23.276Z,96484.03
2022-10-25T12:39:53.626Z,96489.01
2022-10-25T12:42:46.136Z,96492.11
2022-10-25T12:45:58.679Z,96491.16
2022-10-25T12:49:08.361Z,96488.84
2022-10-25T12:52:10.681Z,96489.32
2022-10-25T12:55:25.730Z,96489.08
2022-10-25T12:58:42.795Z,96490.23
2022-10-25T13:01:33.376Z,96498.02
2022-10-25T13:04:36.034Z,96501.04
2022-10-25T13:07:07.376Z,96499.02
2022-10-25T13:09:40.486Z,96506.30
2022-10-25T13:12:20.036Z,96514.36
2022-10-25T13:14:57.387Z,96520.65
2022-10-25T13:17:46.096Z,96521.12
2022-10-25T13:20:49.146Z,96520.91
2022-10-25T13:23:50.415Z,96520.56
2022-10-25T13:26:25.880Z,96518.58
2022-10-25T13:29:12.405Z,96513.84
2022-10-25T13:31:51.683Z,96517.87
2022-10-25T13:34:28.776Z,96522.03
2022-10-25T13:37:41.025Z,96517.73
2022-10-25T13:40:23.073Z,96523.02
2022-10-25T13:43:03.787Z,96521.71
2022-10-25T13:45:39.713Z,96528.97
2022-10-25T13:48:30.611Z,96529.63
2022-10-25T13:51:17.952Z,96530.20
2022-10-25T13:53:50.903Z,96536.15
2022-10-25T13:56:49.131Z,96541.85
2022-10-25T13:59:58.653Z,96542.16
2022-10-25T14:02:32.841Z,96538.52
2022-10-25T14:05:03.552Z,96540.21
2022-10-25T14:07:52.535Z,96542.02
2022-10-25T14:10:30.717Z,96542.36
2022-10-25T14:13:35.478Z,96541.83
2022-10-25T14:16:30.567Z,96537.16
2022-10-25T14:19:47.009Z,96544.38
2022-10-25T14:22:37.339Z,96548.72
2022-10-25T14:25:25.552Z,96554.16
2022-10-25T14:28:23.617Z,96558.30
2022-10-25T14:31:07.063Z,96559.41
2022-10-25T14:34:09.935Z,96558.36
2022-10-25T14:37:23.618Z,96558.12
2022-10-25T14:40:44.266Z,96558.46
2022-10-25T14:43:39.414Z,96561.08
2022-10-25T14:46:22.184Z,96560.72
2022-10-25T14:48:56.405Z,96566.33
2022-10-25T14:51:55.070Z,96565.85
2022-10-25T14:54:29.492Z,96561.17
2022-10-25T14:57:07.223Z,96559.48
2022-10-25T14:59:52.426Z,96556.77
2022-10-25T15:02:28.726Z,96544.66
2022-10-25T15:05:01.002Z,96549.04
2022-10-25T15:07:40.130Z,96563.70
2022-10-25T15:10:35.252Z,96564.50
2022-10-25T15:13:27.945Z,96571.14
2022-10-25T15:16:03.237Z,96577.02
2022-10-25T15:18:37.733Z,96569.30
2022-10-25T15:21:13.754Z,96575.11
2022-10-25T15:23:44.863Z,96578.33
2022-10-25T15:26:29.508Z,96581.27
2022-10-25T15:29:00.168Z,96591.16
2022-10-25T15:31:32.023Z,96594.05
2022-10-25T15:34:03.785Z,96596.75
2022-10-25T15:36:34.250Z,96589.88
2022-10-25T15:39:14.191Z,96588.50
2022-10-25T15:41:44.873Z,96590.23
2022-10-25T15:44:12.826Z,96593.08
2022-10-25T15:46:41.550Z,96597.34
2022-10-25T15:49:13.183Z,96596.46
2022-10-25T15:51:44.476Z,96591.83
2022-10-25T15:54:22.735Z,96588.80
2022-10-25T15:56:51.894Z,96587.06
2022-10-25T15:59:20.151Z,96587.27
2022-10-25T16:01:52.612Z,96585.86
2022-10-25T16:04:21.308Z,96594.58
2022-10-25T16:06:49.496Z,96593.86
2022-10-25T16:09:18.459Z,96598.58
2022-10-25T16:11:54.207Z,96599.95
2022-10-25T16:14:25.378Z,96605.96
2022-10-25T16:16:53.309Z,96616.97
2022-10-25T16:19:22.325Z,96622.02
2022-10-25T16:21:50.337Z,96623.09
2022-10-25T16:24:20.508Z,96623.64
2022-10-25T16:26:50.182Z,96627.11
2022-10-25T16:29:21.374Z,96624.68
2022-10-25T16:31:50.522Z,96623.56
2022-10-25T16:34:19.776Z,96627.61
2022-10-25T16:36:50.350Z,96624.43
2022-10-25T16:39:18.879Z,96627.27
2022-10-25T16:41:47.987Z,96628.93
2022-10-25T16:44:19.220Z,96627.73
2022-10-25T16:46:47.678Z,96627.29
2022-10-25T16:49:16.201Z,96624.27
2022-10-25T16:51:44.510Z,96626.25
2022-10-25T16:54:12.933Z,96627.70
2022-10-25T16:56:40.767Z,96630.38
2022-10-25T16:59:08.673Z,96634.41
2022-10-25T17:01:40.102Z,96643.53
2022-10-25T17:04:17.027Z,96649.11
2022-10-25T17:06:44.877Z,96653.42
2022-10-25T17:09:12.755Z,96651.28
2022-10-25T17:11:41.033Z,96653.48
2022-10-25T17:14:10.238Z,96653.19
2022-10-25T17:16:40.512Z,96655.38
2022-10-25T17:19:10.814Z,96660.42
2022-10-25T17:21:39.396Z,96662.40
2022-10-25T17:24:09.271Z,96663.10
2022-10-25T17:26:38.010Z,96659.73
2022-10-25T17:29:05.837Z,96657.05
2022-10-25T17:31:33.750Z,96663.38
2022-10-25T17:34:02.780Z,96664.82
2022-10-25T17:36:32.357Z,96659.34
2022-10-25T17:39:00.826Z,96660.34
2022-10-25T17:41:28.871Z,96659.47
2022-10-25T17:43:57.053Z,96661.61
2022-10-25T17:46:29.080Z,96663.85
2022-10-25T17:49:03.295Z,96663.20
2022-10-25T17:51:33.723Z,96666.83
2022-10-25T17:54:01.901Z,96669.36
2022-10-25T17:58:58.091Z,96670.78
2022-10-25T18:01:27.905Z,96669.20
2022-10-25T18:03:55.996Z,96669.34
2022-10-25T18:06:25.470Z,96674.27
2022-10-25T18:08:55.969Z,96675.77
2022-10-25T18:11:26.067Z,96677.14
2022-10-25T18:13:58.604Z,96679.62
2022-10-25T18:16:28.928Z,96680.39
2022-10-25T18:18:59.275Z,96682.75
2022-10-25T18:21:27.626Z,96685.38
2022-10-25T18:23:57.579Z,96687.40
2022-10-25T18:26:26.754Z,96686.38
2022-10-25T18:28:56.322Z,96683.59
2022-10-25T18:31:26.955Z,96678.79
2022-10-25T18:33:55.667Z,96680.06
2022-10-25T18:36:23.905Z,96680.76
2022-10-25T18:38:55.198Z,96683.00
2022-10-25T18:41:28.001Z,96686.31
2022-10-25T18:43:57.119Z,96684.95
2022-10-25T18:46:29.414Z,96681.06
2022-10-25T18:48:58.290Z,96681.38
2022-10-25T18:51:28.987Z,96681.30
2022-10-25T18:54:00.114Z,96683.54
2022-10-25T18:56:29.791Z,96685.23
2022-10-25T18:58:59.191Z,96684.84
2022-10-25T19:01:32.783Z,96684.70
2022-10-25T19:04:05.715Z,96681.10
2022-10-25T19:06:34.171Z,96686.81
2022-10-25T19:09:03.087Z,96687.46
2022-10-25T19:11:32.786Z,96686.57
2022-10-25T19:14:01.428Z,96687.16
2022-10-25T19:16:29.406Z,96687.34
2022-10-25T19:19:02.203Z,96688.23
2022-10-25T19:21:30.141Z,96692.18
2022-10-25T19:23:58.146Z,96685.32
2022-10-25T19:26:26.688Z,96681.58
2022-10-25T19:28:58.410Z,96682.80
2022-10-25T19:31:29.378Z,96678.90
2022-10-25T19:34:00.589Z,96679.17
2022-10-25T19:36:30.659Z,96679.31
2022-10-25T19:38:59.015Z,96683.86
2022-10-25T19:41:27.571Z,96689.31
2022-10-25T19:44:00.348Z,96693.67
2022-10-25T19:46:28.244Z,96691.79
2022-10-25T19:49:00.398Z,96688.61
2022-10-25T19:51:28.742Z,96685.99
2022-10-25T19:53:56.686Z,96688.98
2022-10-25T19:56:24.916Z,96688.52
2022-10-25T19:58:54.231Z,96688.10
2022-10-25T20:01:25.010Z,96693.58
2022-10-25T20:03:54.839Z,96692.92
2022-10-25T20:06:26.047Z,96698.05
2022-10-25T20:08:55.433Z,96698.13
2022-10-25T20:11:25.737Z,96698.06
2022-10-25T20:13:55.907Z,96703.02
2022-10-25T20:16:25.487Z,96702.64
2022-10-25T20:18:54.498Z,96702.30
2022-10-25T20:21:25.630Z,96702.09
2022-10-25T20:23:57.857Z,96701.40
2022-10-25T20:26:28.748Z,96701.65
2022-10-25T20:29:00.084Z,96705.69
2022-10-25T20:31:31.520Z,96706.55
2022-10-25T20:34:02.494Z,96705.98
2022-10-25T20:36:30.914Z,96707.36
2022-10-25T20:38:58.908Z,96709.81
2022-10-25T20:41:29.490Z,96708.55
2022-10-25T20:44:00.419Z,96709.46
2022-10-25T20:46:29.367Z,96707.64
2022-10-25T20:48:58.552Z,96703.70
2022-10-25T20:51:28.697Z,96707.00
2022-10-25T20:53:57.669Z,96704.25
2022-10-25T20:56:26.190Z,96701.60
2022-10-25T20:58:54.283Z,96701.70
2022-10-25T21:01:22.324Z,96705.02
2022-10-25T21:03:54.904Z,96701.11
2022-10-25T21:06:24.483Z,96699.69
2022-10-25T21:08:57.260Z,96699.55
2022-10-25T21:11:29.221Z,96697.83
2022-10-25T21:13:59.511Z,96695.34
2022-10-25T21:16:27.617Z,96695.90
2022-10-25T21:19:04.457Z,96686.36
2022-10-25T21:21:35.730Z,96685.79
2022-10-25T21:24:10.371Z,96688.70
2022-10-25T21:26:38.511Z,96686.95
2022-10-25T21:29:09.688Z,96684.02
2022-10-25T21:31:37.871Z,96683.71
2022-10-25T21:34:06.089Z,96684.71
2022-10-25T21:36:34.120Z,96684.02
2022-10-25T21:39:02.007Z,96688.21
2022-10-25T21:41:30.115Z,96691.73
2022-10-25T21:43:58.475Z,96694.73
2022-10-25T21:46:28.082Z,96686.92
2022-10-25T21:48:56.163Z,96689.59
2022-10-25T21:51:24.647Z,96694.30
2022-10-25T21:53:55.027Z,96696.47
2022-10-25T21:56:24.053Z,96699.71
2022-10-25T21:58:53.543Z,96700.80
2022-10-25T22:01:24.603Z,96701.73
2022-10-25T22:03:52.775Z,96707.14
2022-10-25T22:06:23.309Z,96703.44
2022-10-25T22:08:53.943Z,96703.49
2022-10-25T22:11:24.648Z,96698.79
2022-10-25T22:13:55.705Z,96695.04
2022-10-25T22:16:24.575Z,96691.45
2022-10-25T22:18:57.786Z,96693.19
2022-10-25T22:21:29.333Z,96698.68
2022-10-25T22:23:57.856Z,96705.85
2022-10-25T22:26:26.681Z,96712.26
2022-10-25T22:28:57.111Z,96709.66
2022-10-25T22:31:27.551Z,96709.87
2022-10-25T22:33:58.361Z,96708.23
2022-10-25T22:36:28.619Z,96709.40
2022-10-25T22:38:57.623Z,96715.25
2022-10-25T22:41:27.857Z,96715.83
2022-10-25T22:43:59.535Z,96714.74
2022-10-25T22:46:30.860Z,96710.06
2022-10-25T22:49:03.912Z,96712.26
2022-10-25T22:51:32.715Z,96710.74
2022-10-25T22:54:00.778Z,96714.13
2022-10-25T22:56:30.895Z,96714.75
2022-10-25T22:59:01.571Z,96717.89
2022-10-25T23:01:35.747Z,96717.15
2022-10-25T23:04:07.302Z,96720.42
2022-10-25T23:06:40.117Z,96725.69
2022-10-25T23:09:10.629Z,96732.70
2022-10-25T23:11:40.996Z,96738.81
2022-10-25T23:14:14.840Z,96738.13
2022-10-25T23:16:47.476Z,96742.79
2022-10-25T23:19:20.541Z,96743.90
2022-10-25T23:21:58.943Z,96746.93
2022-10-25T23:24:31.290Z,96747.54
2022-10-25T23:27:01.037Z,96748.58
2022-10-25T23:29:33.515Z,96747.48
2022-10-25T23:32:03.129Z,96745.11
2022-10-25T23:34:32.422Z,96743.39
2022-10-25T23:37:08.436Z,96743.70
2022-10-25T23:39:36.650Z,96741.29
2022-10-25T23:42:08.692Z,96743.88
2022-10-25T23:44:40.241Z,96743.39
2022-10-25T23:47:12.088Z,96740.69
2022-10-25T23:49:40.407Z,96744.77
2022-10-25T23:52:11.456Z,96739.33
2022-10-25T23:54:51.097Z,96742.92
2022-10-25T23:57:20.604Z,96740.12
2022-10-25T23:59:53.699Z,96740.13
